WAT3650 KBDL-MMUN
Flight info
| Callsign | WAT3650 |
|---|---|
| Flight time | N/A |
| Altitude | 30000 |
| Route | VEERS DCT PWL DCT BIZEX Q75 TEUFL/N0450F320 Q75 ENEME DCT EVANZ Q109 KNOST M215 PISAD UM215 NUDIS DCT VOMAR VOMAR1A |
| Aircraft | MD83/M-SDFGIRWY/S |
Departure
| Time | N/A |
|---|---|
| Airport | Bradley International Airport (KBDL) |
Arrival
| Time | 2026-05-03 21:47 |
|---|---|
| Airport | Cancún International Airport (MMUN) |
| Time | Latitude | Longitude | Altitude | Speed | Heading |
|---|---|---|---|---|---|
| 2026-05-03 20:15 | 28.41392 | -83.30448 | 34167 ft | 390 kts | 205° |
| 2026-05-03 20:15 | 28.36124 | -83.31966 | 34169 ft | 390 kts | 205° |
| 2026-05-03 20:16 | 28.30864 | -83.33482 | 34173 ft | 389 kts | 205° |
| 2026-05-03 20:16 | 28.25871 | -83.34921 | 34170 ft | 389 kts | 205° |
| 2026-05-03 20:17 | 28.20624 | -83.36433 | 34167 ft | 389 kts | 205° |
| 2026-05-03 20:17 | 28.15372 | -83.37944 | 34167 ft | 389 kts | 205° |
| 2026-05-03 20:18 | 28.10116 | -83.39456 | 34165 ft | 389 kts | 205° |
| 2026-05-03 20:18 | 28.04855 | -83.40965 | 34163 ft | 389 kts | 205° |
| 2026-05-03 20:18 | 28.02229 | -83.41899 | 34168 ft | 376 kts | 217° |
| 2026-05-03 20:19 | 28.00265 | -83.43563 | 34179 ft | 358 kts | 235° |
| 2026-05-03 20:19 | 27.97837 | -83.48405 | 34166 ft | 355 kts | 246° |
| 2026-05-03 20:20 | 27.95893 | -83.53491 | 34165 ft | 354 kts | 248° |
| 2026-05-03 20:20 | 27.94057 | -83.58652 | 34174 ft | 353 kts | 248° |
| 2026-05-03 20:21 | 27.92204 | -83.63807 | 34171 ft | 353 kts | 248° |
| 2026-05-03 20:21 | 27.90329 | -83.68913 | 34174 ft | 353 kts | 248° |
| 2026-05-03 20:22 | 27.88430 | -83.74041 | 34177 ft | 353 kts | 248° |
| 2026-05-03 20:22 | 27.86529 | -83.79171 | 34177 ft | 354 kts | 248° |
| 2026-05-03 20:23 | 27.84625 | -83.84311 | 34180 ft | 354 kts | 248° |
| 2026-05-03 20:23 | 27.82723 | -83.89439 | 34172 ft | 354 kts | 248° |
| 2026-05-03 20:24 | 27.80806 | -83.94565 | 34177 ft | 354 kts | 247° |
| 2026-05-03 20:24 | 27.78901 | -83.99664 | 34181 ft | 354 kts | 247° |
| 2026-05-03 20:25 | 27.76986 | -84.04798 | 34180 ft | 354 kts | 247° |
| 2026-05-03 20:25 | 27.75071 | -84.09931 | 34175 ft | 354 kts | 247° |
| 2026-05-03 20:26 | 27.73167 | -84.15035 | 34180 ft | 355 kts | 247° |
| 2026-05-03 20:26 | 27.71251 | -84.20171 | 34181 ft | 355 kts | 248° |
| 2026-05-03 20:27 | 27.69331 | -84.25317 | 34181 ft | 355 kts | 248° |
| 2026-05-03 20:27 | 27.67410 | -84.30463 | 34172 ft | 355 kts | 247° |
| 2026-05-03 20:28 | 27.65489 | -84.35564 | 34182 ft | 355 kts | 247° |
| 2026-05-03 20:28 | 27.63549 | -84.40699 | 34178 ft | 356 kts | 247° |
| 2026-05-03 20:29 | 27.61612 | -84.45834 | 34178 ft | 356 kts | 247° |
| 2026-05-03 20:29 | 27.59989 | -84.50140 | 34180 ft | 356 kts | 247° |
| 2026-05-03 20:30 | 27.58064 | -84.55244 | 34178 ft | 356 kts | 247° |
| 2026-05-03 20:30 | 27.56126 | -84.60389 | 34182 ft | 357 kts | 247° |
| 2026-05-03 20:31 | 27.54184 | -84.65536 | 34180 ft | 357 kts | 247° |
| 2026-05-03 20:31 | 27.52242 | -84.70683 | 34183 ft | 357 kts | 247° |
| 2026-05-03 20:32 | 27.50297 | -84.75843 | 34184 ft | 357 kts | 247° |
| 2026-05-03 20:32 | 27.49113 | -84.78301 | 34185 ft | 360 kts | 233° |
| 2026-05-03 20:32 | 27.47283 | -84.80215 | 34189 ft | 368 kts | 224° |
| 2026-05-03 20:33 | 27.43136 | -84.83659 | 34175 ft | 371 kts | 223° |
| 2026-05-03 20:33 | 27.38950 | -84.87054 | 34170 ft | 371 kts | 223° |
| 2026-05-03 20:34 | 27.34782 | -84.90487 | 34174 ft | 370 kts | 223° |
| 2026-05-03 20:34 | 27.30644 | -84.93963 | 34176 ft | 370 kts | 223° |
| 2026-05-03 20:35 | 27.26521 | -84.97446 | 34173 ft | 371 kts | 223° |
| 2026-05-03 20:35 | 27.22398 | -85.00923 | 34175 ft | 372 kts | 223° |
| 2026-05-03 20:36 | 27.18253 | -85.04407 | 34171 ft | 372 kts | 223° |
| 2026-05-03 20:36 | 27.14104 | -85.07888 | 34172 ft | 373 kts | 223° |
| 2026-05-03 20:37 | 27.09961 | -85.11347 | 34169 ft | 373 kts | 223° |
| 2026-05-03 20:37 | 27.05785 | -85.14832 | 34168 ft | 374 kts | 223° |
| 2026-05-03 20:38 | 27.01606 | -85.18321 | 34169 ft | 374 kts | 223° |
| 2026-05-03 20:38 | 26.97444 | -85.21793 | 34169 ft | 375 kts | 223° |
| 2026-05-03 20:39 | 26.93240 | -85.25300 | 34100 ft | 376 kts | 223° |
| 2026-05-03 20:39 | 26.88992 | -85.28842 | 34050 ft | 383 kts | 223° |
| 2026-05-03 20:39 | 26.86851 | -85.30624 | 34259 ft | 382 kts | 223° |
| 2026-05-03 20:40 | 26.84728 | -85.32383 | 34688 ft | 376 kts | 223° |
| 2026-05-03 20:40 | 26.82667 | -85.34090 | 35060 ft | 371 kts | 223° |
| 2026-05-03 20:40 | 26.80597 | -85.35807 | 35299 ft | 370 kts | 223° |
| 2026-05-03 20:40 | 26.78526 | -85.37527 | 35472 ft | 371 kts | 223° |
| 2026-05-03 20:41 | 26.76456 | -85.39247 | 35652 ft | 371 kts | 224° |
| 2026-05-03 20:41 | 26.74381 | -85.40969 | 35838 ft | 371 kts | 223° |
| 2026-05-03 20:41 | 26.72293 | -85.42702 | 35954 ft | 373 kts | 223° |
| 2026-05-03 20:42 | 26.68116 | -85.46168 | 36033 ft | 373 kts | 224° |
| 2026-05-03 20:42 | 26.63957 | -85.49608 | 36057 ft | 371 kts | 223° |
| 2026-05-03 20:43 | 26.59834 | -85.52992 | 36058 ft | 370 kts | 223° |
| 2026-05-03 20:43 | 26.55686 | -85.56402 | 36060 ft | 370 kts | 223° |
| 2026-05-03 20:44 | 26.51534 | -85.59827 | 36057 ft | 371 kts | 223° |
| 2026-05-03 20:44 | 26.47374 | -85.63260 | 36057 ft | 372 kts | 223° |
| 2026-05-03 20:45 | 26.43213 | -85.66690 | 36052 ft | 372 kts | 223° |
| 2026-05-03 20:45 | 26.39040 | -85.70126 | 36049 ft | 373 kts | 223° |
| 2026-05-03 20:46 | 26.34859 | -85.73565 | 36060 ft | 373 kts | 223° |
| 2026-05-03 20:46 | 26.30701 | -85.76983 | 36051 ft | 374 kts | 223° |
| 2026-05-03 20:47 | 26.26504 | -85.80419 | 36052 ft | 375 kts | 223° |
| 2026-05-03 20:47 | 26.22298 | -85.83858 | 36052 ft | 375 kts | 223° |
| 2026-05-03 20:48 | 26.18084 | -85.87308 | 36046 ft | 376 kts | 223° |
| 2026-05-03 20:48 | 26.13865 | -85.90764 | 36049 ft | 377 kts | 223° |
| 2026-05-03 20:49 | 26.09638 | -85.94223 | 36050 ft | 377 kts | 223° |
| 2026-05-03 20:49 | 26.05405 | -85.97684 | 36049 ft | 378 kts | 223° |
| 2026-05-03 20:50 | 26.00961 | -86.00907 | 36046 ft | 383 kts | 218° |
| 2026-05-03 20:50 | 25.96363 | -86.03877 | 36045 ft | 384 kts | 218° |
| 2026-05-03 20:51 | 25.91741 | -86.06892 | 36046 ft | 384 kts | 218° |
| 2026-05-03 20:51 | 25.87175 | -86.09929 | 36046 ft | 385 kts | 219° |
| 2026-05-03 20:52 | 25.82594 | -86.13000 | 36046 ft | 385 kts | 219° |
| 2026-05-03 20:52 | 25.78004 | -86.16078 | 36043 ft | 385 kts | 219° |
| 2026-05-03 20:53 | 25.73392 | -86.19160 | 36040 ft | 386 kts | 218° |
| 2026-05-03 20:53 | 25.68792 | -86.22229 | 36040 ft | 386 kts | 218° |
| 2026-05-03 20:54 | 25.64168 | -86.25302 | 36040 ft | 387 kts | 218° |
| 2026-05-03 20:54 | 25.57258 | -86.29884 | 36039 ft | 387 kts | 218° |
| 2026-05-03 20:55 | 25.52636 | -86.32953 | 36041 ft | 387 kts | 218° |
| 2026-05-03 20:55 | 25.48001 | -86.36028 | 36038 ft | 388 kts | 218° |
| 2026-05-03 20:56 | 25.43367 | -86.39101 | 36036 ft | 388 kts | 218° |
| 2026-05-03 20:56 | 25.38736 | -86.42168 | 36038 ft | 388 kts | 218° |
| 2026-05-03 20:57 | 25.34125 | -86.45218 | 36037 ft | 389 kts | 218° |
| 2026-05-03 20:57 | 25.29479 | -86.48286 | 36031 ft | 389 kts | 218° |
| 2026-05-03 20:58 | 25.24822 | -86.51351 | 36037 ft | 389 kts | 218° |
| 2026-05-03 20:58 | 25.20168 | -86.54415 | 36030 ft | 389 kts | 218° |
| 2026-05-03 20:59 | 25.15506 | -86.57486 | 36030 ft | 390 kts | 218° |
| 2026-05-03 20:59 | 25.10879 | -86.60532 | 36030 ft | 390 kts | 218° |
| 2026-05-03 21:00 | 25.07753 | -86.62589 | 36028 ft | 390 kts | 218° |
| 2026-05-03 21:00 | 25.01527 | -86.66681 | 36027 ft | 391 kts | 218° |
| 2026-05-03 21:01 | 24.96849 | -86.69752 | 36021 ft | 391 kts | 218° |
| 2026-05-03 21:01 | 24.92195 | -86.72798 | 36033 ft | 392 kts | 218° |
| 2026-05-03 21:02 | 24.87508 | -86.75860 | 36020 ft | 392 kts | 218° |
| 2026-05-03 21:02 | 24.82812 | -86.78931 | 36020 ft | 392 kts | 218° |
| 2026-05-03 21:03 | 24.78111 | -86.82006 | 36019 ft | 393 kts | 218° |
| 2026-05-03 21:03 | 24.73399 | -86.85086 | 36022 ft | 394 kts | 218° |
| 2026-05-03 21:04 | 24.68675 | -86.88169 | 36018 ft | 394 kts | 218° |
| 2026-05-03 21:04 | 24.63989 | -86.91224 | 36015 ft | 394 kts | 218° |
| 2026-05-03 21:05 | 24.59263 | -86.94303 | 36015 ft | 395 kts | 218° |
| 2026-05-03 21:05 | 24.54516 | -86.97385 | 36017 ft | 396 kts | 218° |
| 2026-05-03 21:06 | 24.49760 | -87.00473 | 36012 ft | 396 kts | 218° |
| 2026-05-03 21:06 | 24.45046 | -87.03535 | 36010 ft | 396 kts | 218° |
| 2026-05-03 21:07 | 24.40161 | -87.06401 | 36017 ft | 407 kts | 208° |
| 2026-05-03 21:07 | 24.34717 | -87.08322 | 36006 ft | 411 kts | 206° |
| 2026-05-03 21:08 | 24.29289 | -87.10288 | 36007 ft | 409 kts | 207° |
| 2026-05-03 21:08 | 24.23956 | -87.12374 | 36005 ft | 409 kts | 208° |
| 2026-05-03 21:09 | 24.18603 | -87.14531 | 36005 ft | 410 kts | 208° |
| 2026-05-03 21:09 | 24.13248 | -87.16689 | 35993 ft | 411 kts | 208° |
| 2026-05-03 21:10 | 24.07872 | -87.18836 | 35993 ft | 411 kts | 208° |
| 2026-05-03 21:10 | 24.02477 | -87.20979 | 35996 ft | 412 kts | 208° |
| 2026-05-03 21:11 | 23.97119 | -87.23098 | 35995 ft | 413 kts | 208° |
| 2026-05-03 21:11 | 23.91706 | -87.25239 | 35994 ft | 413 kts | 208° |
| 2026-05-03 21:12 | 23.86287 | -87.27384 | 35995 ft | 414 kts | 208° |
| 2026-05-03 21:12 | 23.80865 | -87.29528 | 35993 ft | 414 kts | 208° |
| 2026-05-03 21:13 | 23.75434 | -87.31672 | 35987 ft | 415 kts | 208° |
| 2026-05-03 21:13 | 23.70038 | -87.33799 | 35988 ft | 415 kts | 207° |
| 2026-05-03 21:14 | 23.64592 | -87.35944 | 35986 ft | 416 kts | 207° |
| 2026-05-03 21:14 | 23.59140 | -87.38086 | 35982 ft | 417 kts | 207° |
| 2026-05-03 21:15 | 23.53682 | -87.40226 | 35985 ft | 417 kts | 207° |
| 2026-05-03 21:15 | 23.48218 | -87.42369 | 35984 ft | 417 kts | 207° |
| 2026-05-03 21:16 | 23.43665 | -87.44155 | 35984 ft | 418 kts | 207° |
| 2026-05-03 21:16 | 23.37298 | -87.46650 | 35984 ft | 418 kts | 207° |
| 2026-05-03 21:17 | 23.32741 | -87.48434 | 35981 ft | 418 kts | 207° |
| 2026-05-03 21:17 | 23.27255 | -87.50580 | 35981 ft | 419 kts | 207° |
| 2026-05-03 21:18 | 23.21773 | -87.52720 | 35982 ft | 419 kts | 207° |
| 2026-05-03 21:18 | 23.16272 | -87.54862 | 35980 ft | 420 kts | 207° |
| 2026-05-03 21:19 | 23.10795 | -87.56996 | 35981 ft | 420 kts | 207° |
| 2026-05-03 21:19 | 23.05274 | -87.59147 | 35978 ft | 420 kts | 207° |
| 2026-05-03 21:20 | 22.99758 | -87.61294 | 35977 ft | 421 kts | 206° |
| 2026-05-03 21:20 | 22.94241 | -87.63440 | 35977 ft | 421 kts | 206° |
| 2026-05-03 21:21 | 22.88752 | -87.65571 | 35977 ft | 422 kts | 206° |
| 2026-05-03 21:21 | 22.83221 | -87.67718 | 35976 ft | 422 kts | 206° |
| 2026-05-03 21:22 | 22.77689 | -87.69858 | 35977 ft | 422 kts | 206° |
| 2026-05-03 21:22 | 22.72159 | -87.71998 | 35426 ft | 422 kts | 206° |
| 2026-05-03 21:23 | 22.69396 | -87.73067 | 34882 ft | 420 kts | 206° |
| 2026-05-03 21:23 | 22.66647 | -87.74130 | 34295 ft | 419 kts | 206° |
| 2026-05-03 21:23 | 22.63898 | -87.75194 | 33615 ft | 420 kts | 206° |
| 2026-05-03 21:23 | 22.61137 | -87.76264 | 32900 ft | 422 kts | 206° |
| 2026-05-03 21:24 | 22.58398 | -87.77325 | 32217 ft | 425 kts | 206° |
| 2026-05-03 21:24 | 22.55601 | -87.78408 | 31508 ft | 428 kts | 206° |
| 2026-05-03 21:24 | 22.52789 | -87.79495 | 30826 ft | 430 kts | 206° |
| 2026-05-03 21:24 | 22.49980 | -87.80577 | 30133 ft | 428 kts | 206° |
| 2026-05-03 21:25 | 22.47181 | -87.81653 | 29344 ft | 425 kts | 206° |
| 2026-05-03 21:25 | 22.44398 | -87.82724 | 28609 ft | 422 kts | 206° |
| 2026-05-03 21:25 | 22.41646 | -87.83787 | 27933 ft | 418 kts | 206° |
| 2026-05-03 21:25 | 22.38916 | -87.84842 | 27283 ft | 414 kts | 205° |
| 2026-05-03 21:26 | 22.36216 | -87.85884 | 26644 ft | 410 kts | 205° |
| 2026-05-03 21:26 | 22.33536 | -87.86917 | 26000 ft | 408 kts | 205° |
| 2026-05-03 21:26 | 22.30866 | -87.87945 | 25339 ft | 406 kts | 205° |
| 2026-05-03 21:26 | 22.28212 | -87.88967 | 24695 ft | 405 kts | 205° |
| 2026-05-03 21:27 | 22.25560 | -87.89988 | 24032 ft | 405 kts | 205° |
| 2026-05-03 21:27 | 22.22944 | -87.90994 | 23351 ft | 404 kts | 205° |
| 2026-05-03 21:27 | 22.20313 | -87.92005 | 22950 ft | 395 kts | 205° |
| 2026-05-03 21:27 | 22.17772 | -87.92969 | 22870 ft | 378 kts | 204° |
| 2026-05-03 21:28 | 22.15211 | -87.93444 | 22785 ft | 375 kts | 183° |
| 2026-05-03 21:28 | 22.12630 | -87.92887 | 22672 ft | 390 kts | 162° |
| 2026-05-03 21:28 | 22.10179 | -87.91372 | 22100 ft | 422 kts | 146° |
| 2026-05-03 21:28 | 22.07891 | -87.89323 | 21446 ft | 429 kts | 141° |
| 2026-05-03 21:29 | 22.05692 | -87.87136 | 20743 ft | 429 kts | 140° |
| 2026-05-03 21:29 | 22.03542 | -87.84916 | 20047 ft | 428 kts | 139° |
| 2026-05-03 21:29 | 22.01432 | -87.82719 | 19384 ft | 426 kts | 139° |
| 2026-05-03 21:29 | 21.99298 | -87.80519 | 18728 ft | 423 kts | 140° |
| 2026-05-03 21:30 | 21.97159 | -87.78353 | 18065 ft | 420 kts | 140° |
| 2026-05-03 21:30 | 21.95016 | -87.76221 | 17353 ft | 416 kts | 140° |
| 2026-05-03 21:30 | 21.92905 | -87.74145 | 17070 ft | 401 kts | 141° |
| 2026-05-03 21:30 | 21.90923 | -87.72194 | 16974 ft | 371 kts | 141° |
| 2026-05-03 21:31 | 21.89104 | -87.70401 | 16902 ft | 347 kts | 141° |
| 2026-05-03 21:31 | 21.87298 | -87.68631 | 16538 ft | 362 kts | 141° |
| 2026-05-03 21:31 | 21.85359 | -87.66755 | 15975 ft | 381 kts | 141° |
| 2026-05-03 21:31 | 21.83394 | -87.64850 | 15343 ft | 378 kts | 140° |
| 2026-05-03 21:32 | 21.81455 | -87.62958 | 14731 ft | 371 kts | 140° |
| 2026-05-03 21:32 | 21.79577 | -87.61117 | 14137 ft | 360 kts | 139° |
| 2026-05-03 21:32 | 21.77754 | -87.59323 | 13515 ft | 350 kts | 139° |
| 2026-05-03 21:32 | 21.75987 | -87.57583 | 12865 ft | 338 kts | 139° |
| 2026-05-03 21:33 | 21.74279 | -87.55898 | 12220 ft | 328 kts | 139° |
| 2026-05-03 21:33 | 21.72620 | -87.54264 | 11587 ft | 319 kts | 139° |
| 2026-05-03 21:33 | 21.71010 | -87.52680 | 10987 ft | 305 kts | 139° |
| 2026-05-03 21:33 | 21.69465 | -87.51163 | 10387 ft | 303 kts | 139° |
| 2026-05-03 21:34 | 21.68020 | -87.49747 | 9815 ft | 299 kts | 139° |
| 2026-05-03 21:34 | 21.66496 | -87.48251 | 9366 ft | 291 kts | 139° |
| 2026-05-03 21:34 | 21.64989 | -87.46771 | 9092 ft | 294 kts | 138° |
| 2026-05-03 21:34 | 21.63455 | -87.45308 | 8818 ft | 295 kts | 141° |
| 2026-05-03 21:35 | 21.61853 | -87.43934 | 8544 ft | 292 kts | 144° |
| 2026-05-03 21:35 | 21.60229 | -87.42664 | 8270 ft | 287 kts | 146° |
| 2026-05-03 21:35 | 21.58604 | -87.41434 | 8050 ft | 284 kts | 146° |
| 2026-05-03 21:35 | 21.56986 | -87.40219 | 7790 ft | 282 kts | 146° |
| 2026-05-03 21:36 | 21.55399 | -87.39024 | 7543 ft | 280 kts | 146° |
| 2026-05-03 21:36 | 21.53806 | -87.37820 | 7292 ft | 279 kts | 146° |
| 2026-05-03 21:36 | 21.52222 | -87.36610 | 7050 ft | 278 kts | 146° |
| 2026-05-03 21:36 | 21.50650 | -87.35402 | 6828 ft | 277 kts | 146° |
| 2026-05-03 21:37 | 21.49087 | -87.34194 | 6574 ft | 277 kts | 146° |
| 2026-05-03 21:37 | 21.47530 | -87.32984 | 6350 ft | 275 kts | 145° |
| 2026-05-03 21:37 | 21.45987 | -87.31782 | 6137 ft | 274 kts | 145° |
| 2026-05-03 21:37 | 21.44446 | -87.30583 | 5922 ft | 272 kts | 145° |
| 2026-05-03 21:38 | 21.42913 | -87.29388 | 5707 ft | 271 kts | 145° |
| 2026-05-03 21:38 | 21.41391 | -87.28203 | 5520 ft | 269 kts | 145° |
| 2026-05-03 21:38 | 21.39875 | -87.27021 | 5320 ft | 268 kts | 145° |
| 2026-05-03 21:38 | 21.38384 | -87.25860 | 5116 ft | 267 kts | 145° |
| 2026-05-03 21:39 | 21.36880 | -87.24690 | 4923 ft | 266 kts | 145° |
| 2026-05-03 21:39 | 21.35382 | -87.23526 | 4715 ft | 265 kts | 145° |
| 2026-05-03 21:39 | 21.33891 | -87.22366 | 4494 ft | 265 kts | 145° |
| 2026-05-03 21:39 | 21.32401 | -87.21208 | 4278 ft | 265 kts | 144° |
| 2026-05-03 21:40 | 21.30921 | -87.20059 | 4117 ft | 262 kts | 145° |
| 2026-05-03 21:40 | 21.29431 | -87.18938 | 4041 ft | 261 kts | 149° |
| 2026-05-03 21:40 | 21.27835 | -87.17984 | 3762 ft | 261 kts | 153° |
| 2026-05-03 21:40 | 21.26212 | -87.17125 | 3501 ft | 259 kts | 154° |
| 2026-05-03 21:41 | 21.24595 | -87.16292 | 3259 ft | 257 kts | 154° |
| 2026-05-03 21:41 | 21.23296 | -87.15624 | 3128 ft | 255 kts | 154° |
| 2026-05-03 21:41 | 21.21829 | -87.14473 | 3067 ft | 255 kts | 130° |
| 2026-05-03 21:41 | 21.20777 | -87.12930 | 3021 ft | 256 kts | 123° |
| 2026-05-03 21:42 | 21.19807 | -87.11335 | 2988 ft | 254 kts | 123° |
| 2026-05-03 21:42 | 21.18867 | -87.09755 | 2973 ft | 244 kts | 122° |
| 2026-05-03 21:42 | 21.18006 | -87.08298 | 2964 ft | 219 kts | 122° |
| 2026-05-03 21:42 | 21.17242 | -87.07009 | 2989 ft | 187 kts | 122° |
| 2026-05-03 21:43 | 21.16576 | -87.05900 | 2978 ft | 174 kts | 123° |
| 2026-05-03 21:43 | 21.15907 | -87.04800 | 2992 ft | 178 kts | 123° |
| 2026-05-03 21:43 | 21.15232 | -87.03703 | 2987 ft | 179 kts | 123° |
| 2026-05-03 21:43 | 21.14540 | -87.02587 | 2985 ft | 180 kts | 124° |
| 2026-05-03 21:44 | 21.13842 | -87.01466 | 2988 ft | 180 kts | 124° |
| 2026-05-03 21:44 | 21.13143 | -87.00348 | 2982 ft | 180 kts | 124° |
| 2026-05-03 21:44 | 21.12444 | -86.99234 | 2977 ft | 181 kts | 124° |
| 2026-05-03 21:44 | 21.11740 | -86.98110 | 2881 ft | 186 kts | 124° |
| 2026-05-03 21:45 | 21.11034 | -86.96968 | 2961 ft | 178 kts | 123° |
| 2026-05-03 21:45 | 21.10350 | -86.95828 | 2789 ft | 189 kts | 122° |
| 2026-05-03 21:45 | 21.09710 | -86.94713 | 3177 ft | 153 kts | 121° |
| 2026-05-03 21:45 | 21.09168 | -86.93718 | 2355 ft | 183 kts | 120° |
| 2026-05-03 21:46 | 21.08447 | -86.92346 | 1202 ft | 208 kts | 118° |
| 2026-05-03 21:46 | 21.07769 | -86.91086 | 868 ft | 177 kts | 122° |
| 2026-05-03 21:46 | 21.06976 | -86.90233 | 765 ft | 153 kts | 137° |
| 2026-05-03 21:46 | 21.06260 | -86.89411 | 395 ft | 152 kts | 127° |
| 2026-05-03 21:47 | 21.05705 | -86.88521 | 161 ft | 145 kts | 122° |
| 2026-05-03 21:47 | 21.05175 | -86.87655 | 39 ft | 129 kts | 124° |
| 2026-05-03 21:47 | 21.04740 | -86.86963 | 39 ft | 91 kts | 123° |
| 2026-05-03 21:47 | 21.04475 | -86.86538 | 39 ft | 48 kts | 124° |
| 2026-05-03 21:48 | 21.04321 | -86.86403 | 39 ft | 22 kts | 153° |
| 2026-05-03 21:48 | 21.04227 | -86.86355 | 39 ft | 11 kts | 155° |
| 2026-05-03 21:48 | 21.04159 | -86.86321 | 39 ft | 11 kts | 155° |
| 2026-05-03 21:48 | 21.04102 | -86.86275 | 39 ft | 10 kts | 130° |
| 2026-05-03 21:49 | 21.04058 | -86.86225 | 39 ft | 9 kts | 154° |
| 2026-05-03 21:49 | 21.04009 | -86.86233 | 41 ft | 5 kts | 221° |
| 2026-05-03 21:49 | 21.03980 | -86.86258 | 44 ft | 7 kts | 216° |
| 2026-05-03 21:49 | 21.03931 | -86.86294 | 48 ft | 10 kts | 213° |
| 2026-05-03 21:50 | 21.03856 | -86.86347 | 51 ft | 16 kts | 213° |
| 2026-05-03 21:50 | 21.03740 | -86.86430 | 51 ft | 23 kts | 213° |
| 2026-05-03 21:50 | 21.03588 | -86.86538 | 43 ft | 31 kts | 213° |
| 2026-05-03 21:50 | 21.03525 | -86.86603 | 39 ft | 8 kts | 276° |
| 2026-05-03 21:51 | 21.03591 | -86.86637 | 39 ft | 15 kts | 344° |
| 2026-05-03 21:51 | 21.03684 | -86.86698 | 39 ft | 11 kts | 320° |
| 2026-05-03 21:51 | 21.03698 | -86.86710 | 39 ft | 0 kts | 320° |